sensor_id;sensor_type;location;lat;lon;timestamp;P1;durP1;ratioP1;P2;durP2;ratioP2
35959;SDS011;22043;50.970;7.192;2022-07-22T00:01:50;22.50;;;11.57;;
35959;SDS011;22043;50.970;7.192;2022-07-22T00:04:16;20.23;;;11.73;;
35959;SDS011;22043;50.970;7.192;2022-07-22T00:06:42;18.05;;;10.23;;
35959;SDS011;22043;50.970;7.192;2022-07-22T00:09:08;18.98;;;11.68;;
35959;SDS011;22043;50.970;7.192;2022-07-22T00:11:34;17.55;;;10.75;;
35959;SDS011;22043;50.970;7.192;2022-07-22T00:14:00;23.88;;;12.38;;
35959;SDS011;22043;50.970;7.192;2022-07-22T00:16:26;18.38;;;11.63;;
35959;SDS011;22043;50.970;7.192;2022-07-22T00:18:51;20.52;;;11.18;;
35959;SDS011;22043;50.970;7.192;2022-07-22T00:21:17;19.17;;;11.10;;
35959;SDS011;22043;50.970;7.192;2022-07-22T00:23:43;21.30;;;11.68;;
35959;SDS011;22043;50.970;7.192;2022-07-22T00:26:09;20.70;;;11.60;;
35959;SDS011;22043;50.970;7.192;2022-07-22T00:28:35;17.15;;;10.90;;
35959;SDS011;22043;50.970;7.192;2022-07-22T00:31:01;17.85;;;11.70;;
35959;SDS011;22043;50.970;7.192;2022-07-22T00:33:27;18.98;;;11.48;;
35959;SDS011;22043;50.970;7.192;2022-07-22T00:35:53;19.10;;;10.60;;
35959;SDS011;22043;50.970;7.192;2022-07-22T00:38:18;21.25;;;11.50;;
35959;SDS011;22043;50.970;7.192;2022-07-22T00:40:44;19.25;;;11.18;;
35959;SDS011;22043;50.970;7.192;2022-07-22T00:43:10;23.10;;;11.95;;
35959;SDS011;22043;50.970;7.192;2022-07-22T00:45:35;17.75;;;10.27;;
35959;SDS011;22043;50.970;7.192;2022-07-22T00:48:01;15.75;;;9.98;;
35959;SDS011;22043;50.970;7.192;2022-07-22T00:50:27;21.17;;;10.52;;
35959;SDS011;22043;50.970;7.192;2022-07-22T00:52:53;18.08;;;10.68;;
35959;SDS011;22043;50.970;7.192;2022-07-22T00:55:19;20.50;;;10.20;;
35959;SDS011;22043;50.970;7.192;2022-07-22T00:57:45;21.02;;;10.07;;
35959;SDS011;22043;50.970;7.192;2022-07-22T01:00:15;19.63;;;10.00;;
35959;SDS011;22043;50.970;7.192;2022-07-22T01:02:47;18.08;;;10.63;;
35959;SDS011;22043;50.970;7.192;2022-07-22T01:05:13;16.88;;;9.73;;
35959;SDS011;22043;50.970;7.192;2022-07-22T01:07:39;19.23;;;10.45;;
35959;SDS011;22043;50.970;7.192;2022-07-22T01:10:06;18.48;;;9.98;;
35959;SDS011;22043;50.970;7.192;2022-07-22T01:12:32;18.67;;;9.75;;
35959;SDS011;22043;50.970;7.192;2022-07-22T01:14:58;25.83;;;10.77;;
35959;SDS011;22043;50.970;7.192;2022-07-22T01:17:23;17.90;;;9.07;;
35959;SDS011;22043;50.970;7.192;2022-07-22T01:19:50;20.73;;;10.77;;
35959;SDS011;22043;50.970;7.192;2022-07-22T01:22:16;17.08;;;8.82;;
35959;SDS011;22043;50.970;7.192;2022-07-22T01:24:42;20.50;;;10.45;;
35959;SDS011;22043;50.970;7.192;2022-07-22T01:27:08;16.75;;;9.00;;
35959;SDS011;22043;50.970;7.192;2022-07-22T01:29:33;16.60;;;8.60;;
35959;SDS011;22043;50.970;7.192;2022-07-22T01:32:00;16.95;;;9.05;;
35959;SDS011;22043;50.970;7.192;2022-07-22T01:34:27;16.75;;;8.05;;
35959;SDS011;22043;50.970;7.192;2022-07-22T01:36:53;14.43;;;7.85;;
35959;SDS011;22043;50.970;7.192;2022-07-22T01:39:19;13.65;;;8.07;;
35959;SDS011;22043;50.970;7.192;2022-07-22T01:41:45;13.52;;;7.97;;
35959;SDS011;22043;50.970;7.192;2022-07-22T01:44:12;12.43;;;6.93;;
35959;SDS011;22043;50.970;7.192;2022-07-22T01:46:38;16.75;;;7.82;;
35959;SDS011;22043;50.970;7.192;2022-07-22T01:49:04;12.93;;;8.10;;
35959;SDS011;22043;50.970;7.192;2022-07-22T01:51:36;14.50;;;7.50;;
35959;SDS011;22043;50.970;7.192;2022-07-22T01:54:01;15.45;;;7.80;;
35959;SDS011;22043;50.970;7.192;2022-07-22T01:56:27;15.38;;;7.25;;
35959;SDS011;22043;50.970;7.192;2022-07-22T01:58:53;13.65;;;7.32;;
35959;SDS011;22043;50.970;7.192;2022-07-22T02:01:23;11.07;;;7.05;;
35959;SDS011;22043;50.970;7.192;2022-07-22T02:03:49;13.27;;;7.93;;
35959;SDS011;22043;50.970;7.192;2022-07-22T02:06:15;17.95;;;7.38;;
35959;SDS011;22043;50.970;7.192;2022-07-22T02:08:41;12.15;;;7.30;;
35959;SDS011;22043;50.970;7.192;2022-07-22T02:11:16;22.13;;;8.30;;
35959;SDS011;22043;50.970;7.192;2022-07-22T02:14:01;13.43;;;7.55;;
35959;SDS011;22043;50.970;7.192;2022-07-22T02:16:28;13.20;;;7.05;;
35959;SDS011;22043;50.970;7.192;2022-07-22T02:18:54;17.42;;;7.90;;
35959;SDS011;22043;50.970;7.192;2022-07-22T02:21:20;13.82;;;7.93;;
35959;SDS011;22043;50.970;7.192;2022-07-22T02:23:45;16.77;;;7.70;;
35959;SDS011;22043;50.970;7.192;2022-07-22T02:26:11;14.40;;;7.30;;
35959;SDS011;22043;50.970;7.192;2022-07-22T02:28:37;12.95;;;7.93;;
35959;SDS011;22043;50.970;7.192;2022-07-22T02:31:03;14.27;;;8.45;;
35959;SDS011;22043;50.970;7.192;2022-07-22T02:33:29;13.57;;;8.30;;
35959;SDS011;22043;50.970;7.192;2022-07-22T02:35:56;16.42;;;8.63;;
35959;SDS011;22043;50.970;7.192;2022-07-22T02:38:22;17.10;;;9.70;;
35959;SDS011;22043;50.970;7.192;2022-07-22T02:40:48;14.90;;;9.38;;
35959;SDS011;22043;50.970;7.192;2022-07-22T02:43:14;14.32;;;9.45;;
35959;SDS011;22043;50.970;7.192;2022-07-22T02:45:39;15.45;;;9.20;;
35959;SDS011;22043;50.970;7.192;2022-07-22T02:48:06;15.13;;;8.95;;
35959;SDS011;22043;50.970;7.192;2022-07-22T02:50:33;20.83;;;9.00;;
35959;SDS011;22043;50.970;7.192;2022-07-22T02:52:59;14.75;;;8.85;;
35959;SDS011;22043;50.970;7.192;2022-07-22T02:55:29;17.02;;;9.75;;
35959;SDS011;22043;50.970;7.192;2022-07-22T02:57:56;15.25;;;9.65;;
35959;SDS011;22043;50.970;7.192;2022-07-22T03:00:28;18.45;;;9.80;;
35959;SDS011;22043;50.970;7.192;2022-07-22T03:02:54;15.27;;;9.38;;
35959;SDS011;22043;50.970;7.192;2022-07-22T03:05:20;14.82;;;9.27;;
35959;SDS011;22043;50.970;7.192;2022-07-22T03:07:51;15.35;;;10.20;;
35959;SDS011;22043;50.970;7.192;2022-07-22T03:10:17;13.52;;;8.90;;
35959;SDS011;22043;50.970;7.192;2022-07-22T03:12:42;24.55;;;7.43;;
35959;SDS011;22043;50.970;7.192;2022-07-22T03:15:09;11.25;;;7.18;;
35959;SDS011;22043;50.970;7.192;2022-07-22T03:17:35;10.48;;;6.40;;
35959;SDS011;22043;50.970;7.192;2022-07-22T03:20:04;10.88;;;6.32;;
35959;SDS011;22043;50.970;7.192;2022-07-22T03:22:32;10.10;;;6.05;;
35959;SDS011;22043;50.970;7.192;2022-07-22T03:24:59;8.38;;;4.90;;
35959;SDS011;22043;50.970;7.192;2022-07-22T03:27:25;7.20;;;4.63;;
35959;SDS011;22043;50.970;7.192;2022-07-22T03:29:51;7.82;;;4.22;;
35959;SDS011;22043;50.970;7.192;2022-07-22T03:32:17;7.63;;;4.63;;
35959;SDS011;22043;50.970;7.192;2022-07-22T03:34:46;8.27;;;5.35;;
35959;SDS011;22043;50.970;7.192;2022-07-22T03:37:12;8.75;;;4.68;;
35959;SDS011;22043;50.970;7.192;2022-07-22T03:39:39;9.75;;;5.38;;
35959;SDS011;22043;50.970;7.192;2022-07-22T03:42:05;8.20;;;4.80;;
35959;SDS011;22043;50.970;7.192;2022-07-22T03:44:38;8.93;;;5.35;;
35959;SDS011;22043;50.970;7.192;2022-07-22T03:47:04;11.93;;;5.78;;
35959;SDS011;22043;50.970;7.192;2022-07-22T03:49:30;10.30;;;6.35;;
35959;SDS011;22043;50.970;7.192;2022-07-22T03:51:57;13.10;;;7.90;;
35959;SDS011;22043;50.970;7.192;2022-07-22T03:54:24;17.47;;;8.53;;
35959;SDS011;22043;50.970;7.192;2022-07-22T03:56:50;17.75;;;9.55;;
35959;SDS011;22043;50.970;7.192;2022-07-22T03:59:16;18.40;;;9.77;;
35959;SDS011;22043;50.970;7.192;2022-07-22T04:01:42;16.40;;;8.60;;
35959;SDS011;22043;50.970;7.192;2022-07-22T04:04:10;17.42;;;8.88;;
35959;SDS011;22043;50.970;7.192;2022-07-22T04:06:41;18.75;;;10.13;;
35959;SDS011;22043;50.970;7.192;2022-07-22T04:09:20;14.82;;;9.52;;
35959;SDS011;22043;50.970;7.192;2022-07-22T04:11:46;15.45;;;9.40;;
35959;SDS011;22043;50.970;7.192;2022-07-22T04:14:13;23.35;;;10.90;;
35959;SDS011;22043;50.970;7.192;2022-07-22T04:16:39;17.40;;;10.60;;
35959;SDS011;22043;50.970;7.192;2022-07-22T04:19:09;19.02;;;10.98;;
35959;SDS011;22043;50.970;7.192;2022-07-22T04:21:55;19.88;;;10.52;;
35959;SDS011;22043;50.970;7.192;2022-07-22T04:24:25;13.82;;;9.10;;
35959;SDS011;22043;50.970;7.192;2022-07-22T04:26:50;17.67;;;9.20;;
35959;SDS011;22043;50.970;7.192;2022-07-22T04:29:16;17.38;;;9.23;;
35959;SDS011;22043;50.970;7.192;2022-07-22T04:31:42;19.33;;;9.27;;
35959;SDS011;22043;50.970;7.192;2022-07-22T04:34:16;20.50;;;10.38;;
35959;SDS011;22043;50.970;7.192;2022-07-22T04:36:42;25.38;;;11.65;;
35959;SDS011;22043;50.970;7.192;2022-07-22T04:39:08;25.65;;;12.55;;
35959;SDS011;22043;50.970;7.192;2022-07-22T04:41:35;20.50;;;11.77;;
35959;SDS011;22043;50.970;7.192;2022-07-22T04:44:01;24.58;;;12.80;;
35959;SDS011;22043;50.970;7.192;2022-07-22T04:46:29;22.95;;;12.60;;
35959;SDS011;22043;50.970;7.192;2022-07-22T04:48:56;30.25;;;13.50;;
35959;SDS011;22043;50.970;7.192;2022-07-22T04:51:21;27.23;;;12.93;;
35959;SDS011;22043;50.970;7.192;2022-07-22T04:53:51;25.75;;;13.52;;
35959;SDS011;22043;50.970;7.192;2022-07-22T04:56:20;26.23;;;13.20;;
35959;SDS011;22043;50.970;7.192;2022-07-22T04:58:46;25.58;;;13.70;;
35959;SDS011;22043;50.970;7.192;2022-07-22T05:01:12;28.15;;;13.48;;
35959;SDS011;22043;50.970;7.192;2022-07-22T05:03:39;26.25;;;13.30;;
35959;SDS011;22043;50.970;7.192;2022-07-22T05:06:05;24.13;;;12.70;;
35959;SDS011;22043;50.970;7.192;2022-07-22T05:08:35;27.20;;;12.82;;
35959;SDS011;22043;50.970;7.192;2022-07-22T05:11:01;25.55;;;12.52;;
35959;SDS011;22043;50.970;7.192;2022-07-22T05:13:27;25.52;;;13.32;;
35959;SDS011;22043;50.970;7.192;2022-07-22T05:15:53;25.30;;;13.25;;
35959;SDS011;22043;50.970;7.192;2022-07-22T05:18:19;26.85;;;11.93;;
35959;SDS011;22043;50.970;7.192;2022-07-22T05:20:44;26.98;;;12.68;;
35959;SDS011;22043;50.970;7.192;2022-07-22T05:23:10;30.42;;;14.15;;
35959;SDS011;22043;50.970;7.192;2022-07-22T05:25:37;28.15;;;13.30;;
35959;SDS011;22043;50.970;7.192;2022-07-22T05:28:03;26.05;;;12.70;;
35959;SDS011;22043;50.970;7.192;2022-07-22T05:30:35;28.17;;;13.57;;
35959;SDS011;22043;50.970;7.192;2022-07-22T05:33:03;26.10;;;12.60;;
35959;SDS011;22043;50.970;7.192;2022-07-22T05:35:47;28.35;;;13.13;;
35959;SDS011;22043;50.970;7.192;2022-07-22T05:38:13;30.77;;;13.85;;
35959;SDS011;22043;50.970;7.192;2022-07-22T05:40:39;29.33;;;13.15;;
35959;SDS011;22043;50.970;7.192;2022-07-22T05:43:05;28.17;;;11.95;;
35959;SDS011;22043;50.970;7.192;2022-07-22T05:45:31;28.85;;;12.90;;
35959;SDS011;22043;50.970;7.192;2022-07-22T05:47:57;37.58;;;14.40;;
35959;SDS011;22043;50.970;7.192;2022-07-22T05:50:25;33.88;;;12.82;;
35959;SDS011;22043;50.970;7.192;2022-07-22T05:52:50;32.05;;;12.80;;
35959;SDS011;22043;50.970;7.192;2022-07-22T05:55:16;31.13;;;13.80;;
35959;SDS011;22043;50.970;7.192;2022-07-22T05:57:42;32.08;;;12.68;;
35959;SDS011;22043;50.970;7.192;2022-07-22T06:00:09;31.58;;;13.27;;
35959;SDS011;22043;50.970;7.192;2022-07-22T06:02:39;28.55;;;12.23;;
35959;SDS011;22043;50.970;7.192;2022-07-22T06:07:33;26.05;;;10.90;;
35959;SDS011;22043;50.970;7.192;2022-07-22T06:10:01;26.10;;;12.07;;
35959;SDS011;22043;50.970;7.192;2022-07-22T06:12:31;26.70;;;12.07;;
35959;SDS011;22043;50.970;7.192;2022-07-22T06:14:56;24.13;;;10.18;;
35959;SDS011;22043;50.970;7.192;2022-07-22T06:17:22;25.13;;;11.27;;
35959;SDS011;22043;50.970;7.192;2022-07-22T06:19:48;25.45;;;11.07;;
35959;SDS011;22043;50.970;7.192;2022-07-22T06:22:14;23.65;;;11.02;;
35959;SDS011;22043;50.970;7.192;2022-07-22T06:24:43;26.27;;;10.68;;
35959;SDS011;22043;50.970;7.192;2022-07-22T06:27:09;23.63;;;11.38;;
35959;SDS011;22043;50.970;7.192;2022-07-22T06:29:35;23.63;;;10.63;;
35959;SDS011;22043;50.970;7.192;2022-07-22T06:32:01;23.88;;;11.43;;
35959;SDS011;22043;50.970;7.192;2022-07-22T06:34:27;20.75;;;10.15;;
35959;SDS011;22043;50.970;7.192;2022-07-22T06:36:59;21.63;;;10.10;;
35959;SDS011;22043;50.970;7.192;2022-07-22T06:39:25;18.70;;;9.70;;
35959;SDS011;22043;50.970;7.192;2022-07-22T06:41:59;18.83;;;9.13;;
35959;SDS011;22043;50.970;7.192;2022-07-22T06:44:43;19.90;;;9.05;;
35959;SDS011;22043;50.970;7.192;2022-07-22T06:47:17;19.77;;;9.60;;
35959;SDS011;22043;50.970;7.192;2022-07-22T06:49:43;20.90;;;10.57;;
35959;SDS011;22043;50.970;7.192;2022-07-22T06:52:09;20.75;;;10.43;;
35959;SDS011;22043;50.970;7.192;2022-07-22T06:54:34;22.33;;;9.77;;
35959;SDS011;22043;50.970;7.192;2022-07-22T06:57:01;21.13;;;9.23;;
35959;SDS011;22043;50.970;7.192;2022-07-22T06:59:30;23.55;;;10.70;;
35959;SDS011;22043;50.970;7.192;2022-07-22T07:01:58;18.70;;;8.75;;
35959;SDS011;22043;50.970;7.192;2022-07-22T07:04:24;19.00;;;9.13;;
35959;SDS011;22043;50.970;7.192;2022-07-22T07:06:50;22.70;;;10.68;;
35959;SDS011;22043;50.970;7.192;2022-07-22T07:09:41;19.13;;;9.07;;
35959;SDS011;22043;50.970;7.192;2022-07-22T07:12:45;16.67;;;8.90;;
35959;SDS011;22043;50.970;7.192;2022-07-22T07:17:50;15.23;;;8.30;;
35959;SDS011;22043;50.970;7.192;2022-07-22T07:20:16;16.05;;;8.80;;
35959;SDS011;22043;50.970;7.192;2022-07-22T07:22:42;19.02;;;8.57;;
35959;SDS011;22043;50.970;7.192;2022-07-22T07:25:08;18.17;;;8.27;;
35959;SDS011;22043;50.970;7.192;2022-07-22T07:27:34;19.20;;;9.73;;
35959;SDS011;22043;50.970;7.192;2022-07-22T07:30:04;16.45;;;8.30;;
35959;SDS011;22043;50.970;7.192;2022-07-22T07:32:31;17.43;;;8.43;;
35959;SDS011;22043;50.970;7.192;2022-07-22T07:34:56;17.17;;;8.65;;
35959;SDS011;22043;50.970;7.192;2022-07-22T07:37:22;17.05;;;8.73;;
35959;SDS011;22043;50.970;7.192;2022-07-22T07:39:48;21.27;;;9.32;;
35959;SDS011;22043;50.970;7.192;2022-07-22T07:42:14;19.80;;;8.65;;
35959;SDS011;22043;50.970;7.192;2022-07-22T07:44:40;20.17;;;9.35;;
35959;SDS011;22043;50.970;7.192;2022-07-22T07:47:06;15.40;;;8.60;;
35959;SDS011;22043;50.970;7.192;2022-07-22T07:49:32;17.73;;;9.52;;
35959;SDS011;22043;50.970;7.192;2022-07-22T07:51:58;17.48;;;9.95;;
35959;SDS011;22043;50.970;7.192;2022-07-22T07:54:24;17.58;;;9.05;;
35959;SDS011;22043;50.970;7.192;2022-07-22T07:56:51;18.40;;;8.52;;
35959;SDS011;22043;50.970;7.192;2022-07-22T07:59:17;18.63;;;8.85;;
35959;SDS011;22043;50.970;7.192;2022-07-22T08:01:44;14.73;;;7.53;;
35959;SDS011;22043;50.970;7.192;2022-07-22T08:04:09;16.15;;;8.05;;
35959;SDS011;22043;50.970;7.192;2022-07-22T08:06:35;16.40;;;8.18;;
35959;SDS011;22043;50.970;7.192;2022-07-22T08:09:01;17.00;;;8.27;;
35959;SDS011;22043;50.970;7.192;2022-07-22T08:11:33;14.13;;;7.95;;
35959;SDS011;22043;50.970;7.192;2022-07-22T08:14:21;15.10;;;8.00;;
35959;SDS011;22043;50.970;7.192;2022-07-22T08:17:18;17.75;;;8.80;;
35959;SDS011;22043;50.970;7.192;2022-07-22T08:19:44;15.45;;;8.23;;
35959;SDS011;22043;50.970;7.192;2022-07-22T08:22:09;19.63;;;9.20;;
35959;SDS011;22043;50.970;7.192;2022-07-22T08:24:35;14.77;;;7.88;;
35959;SDS011;22043;50.970;7.192;2022-07-22T08:27:10;16.30;;;8.55;;
35959;SDS011;22043;50.970;7.192;2022-07-22T08:29:36;14.77;;;7.93;;
35959;SDS011;22043;50.970;7.192;2022-07-22T08:32:02;18.45;;;9.10;;
35959;SDS011;22043;50.970;7.192;2022-07-22T08:34:28;16.17;;;7.80;;
35959;SDS011;22043;50.970;7.192;2022-07-22T08:36:54;15.88;;;7.60;;
35959;SDS011;22043;50.970;7.192;2022-07-22T08:39:21;17.45;;;7.95;;
35959;SDS011;22043;50.970;7.192;2022-07-22T08:41:47;10.52;;;5.97;;
35959;SDS011;22043;50.970;7.192;2022-07-22T08:44:12;10.32;;;5.38;;
35959;SDS011;22043;50.970;7.192;2022-07-22T08:46:39;9.77;;;5.25;;
35959;SDS011;22043;50.970;7.192;2022-07-22T08:49:17;8.10;;;4.15;;
35959;SDS011;22043;50.970;7.192;2022-07-22T08:51:50;10.18;;;4.53;;
35959;SDS011;22043;50.970;7.192;2022-07-22T08:54:19;8.57;;;4.60;;
35959;SDS011;22043;50.970;7.192;2022-07-22T08:56:46;7.90;;;4.07;;
35959;SDS011;22043;50.970;7.192;2022-07-22T09:02:00;11.90;;;5.13;;
35959;SDS011;22043;50.970;7.192;2022-07-22T09:09:50;5.80;;;3.95;;
35959;SDS011;22043;50.970;7.192;2022-07-22T09:12:56;9.02;;;4.35;;
35959;SDS011;22043;50.970;7.192;2022-07-22T09:15:46;7.53;;;3.20;;
35959;SDS011;22043;50.970;7.192;2022-07-22T09:18:49;7.00;;;3.53;;
35959;SDS011;22043;50.970;7.192;2022-07-22T09:21:28;9.60;;;4.28;;
35959;SDS011;22043;50.970;7.192;2022-07-22T09:24:29;9.02;;;4.20;;
35959;SDS011;22043;50.970;7.192;2022-07-22T09:27:22;8.43;;;4.03;;
35959;SDS011;22043;50.970;7.192;2022-07-22T09:30:23;8.23;;;3.97;;
35959;SDS011;22043;50.970;7.192;2022-07-22T09:32:57;8.18;;;3.90;;
35959;SDS011;22043;50.970;7.192;2022-07-22T09:36:00;8.27;;;3.83;;
35959;SDS011;22043;50.970;7.192;2022-07-22T09:38:29;8.68;;;4.18;;
35959;SDS011;22043;50.970;7.192;2022-07-22T09:40:57;6.88;;;4.18;;
35959;SDS011;22043;50.970;7.192;2022-07-22T09:43:23;7.03;;;3.70;;
35959;SDS011;22043;50.970;7.192;2022-07-22T09:45:54;7.90;;;3.42;;
35959;SDS011;22043;50.970;7.192;2022-07-22T09:48:59;9.45;;;3.63;;
35959;SDS011;22043;50.970;7.192;2022-07-22T09:51:51;9.02;;;3.78;;
35959;SDS011;22043;50.970;7.192;2022-07-22T09:54:21;9.30;;;4.38;;
35959;SDS011;22043;50.970;7.192;2022-07-22T09:56:49;10.57;;;3.85;;
35959;SDS011;22043;50.970;7.192;2022-07-22T09:59:16;11.27;;;5.03;;
35959;SDS011;22043;50.970;7.192;2022-07-22T10:01:50;6.65;;;3.70;;
35959;SDS011;22043;50.970;7.192;2022-07-22T10:04:20;9.75;;;4.88;;
35959;SDS011;22043;50.970;7.192;2022-07-22T10:06:47;8.05;;;4.35;;
35959;SDS011;22043;50.970;7.192;2022-07-22T10:09:17;10.02;;;4.60;;
35959;SDS011;22043;50.970;7.192;2022-07-22T10:11:46;8.77;;;4.45;;
35959;SDS011;22043;50.970;7.192;2022-07-22T10:14:15;8.75;;;4.00;;
35959;SDS011;22043;50.970;7.192;2022-07-22T10:16:42;9.90;;;4.68;;
35959;SDS011;22043;50.970;7.192;2022-07-22T10:19:09;12.30;;;5.00;;
35959;SDS011;22043;50.970;7.192;2022-07-22T10:21:35;10.18;;;4.47;;
35959;SDS011;22043;50.970;7.192;2022-07-22T10:24:09;8.65;;;4.95;;
35959;SDS011;22043;50.970;7.192;2022-07-22T10:26:50;10.30;;;5.00;;
35959;SDS011;22043;50.970;7.192;2022-07-22T10:29:31;8.07;;;4.70;;
35959;SDS011;22043;50.970;7.192;2022-07-22T10:40:13;7.82;;;4.82;;
35959;SDS011;22043;50.970;7.192;2022-07-22T10:45:32;11.20;;;4.88;;
35959;SDS011;22043;50.970;7.192;2022-07-22T10:48:04;8.90;;;5.28;;
35959;SDS011;22043;50.970;7.192;2022-07-22T10:53:03;7.80;;;4.85;;
35959;SDS011;22043;50.970;7.192;2022-07-22T10:55:30;8.77;;;4.78;;
35959;SDS011;22043;50.970;7.192;2022-07-22T10:57:56;7.45;;;4.50;;
35959;SDS011;22043;50.970;7.192;2022-07-22T11:00:21;9.93;;;5.20;;
35959;SDS011;22043;50.970;7.192;2022-07-22T11:02:47;8.73;;;5.10;;
35959;SDS011;22043;50.970;7.192;2022-07-22T11:05:13;10.13;;;5.38;;
35959;SDS011;22043;50.970;7.192;2022-07-22T11:07:43;9.48;;;4.75;;
35959;SDS011;22043;50.970;7.192;2022-07-22T11:10:16;8.45;;;4.95;;
35959;SDS011;22043;50.970;7.192;2022-07-22T11:12:44;7.88;;;4.13;;
35959;SDS011;22043;50.970;7.192;2022-07-22T11:15:10;8.50;;;4.95;;
35959;SDS011;22043;50.970;7.192;2022-07-22T11:17:36;10.05;;;4.75;;
35959;SDS011;22043;50.970;7.192;2022-07-22T11:20:08;7.38;;;4.70;;
35959;SDS011;22043;50.970;7.192;2022-07-22T11:22:35;10.30;;;6.05;;
35959;SDS011;22043;50.970;7.192;2022-07-22T11:25:03;9.65;;;4.85;;
35959;SDS011;22043;50.970;7.192;2022-07-22T11:27:30;9.05;;;5.28;;
35959;SDS011;22043;50.970;7.192;2022-07-22T11:29:56;8.52;;;4.65;;
35959;SDS011;22043;50.970;7.192;2022-07-22T11:32:23;8.10;;;5.00;;
35959;SDS011;22043;50.970;7.192;2022-07-22T11:34:50;8.73;;;4.72;;
35959;SDS011;22043;50.970;7.192;2022-07-22T11:37:17;8.52;;;4.95;;
35959;SDS011;22043;50.970;7.192;2022-07-22T11:39:44;8.95;;;4.50;;
35959;SDS011;22043;50.970;7.192;2022-07-22T11:42:11;7.47;;;4.38;;
35959;SDS011;22043;50.970;7.192;2022-07-22T11:44:38;6.72;;;4.40;;
35959;SDS011;22043;50.970;7.192;2022-07-22T11:47:04;7.65;;;4.57;;
35959;SDS011;22043;50.970;7.192;2022-07-22T11:49:32;7.03;;;4.90;;
35959;SDS011;22043;50.970;7.192;2022-07-22T11:52:00;7.13;;;4.40;;
35959;SDS011;22043;50.970;7.192;2022-07-22T11:54:27;7.72;;;4.85;;
35959;SDS011;22043;50.970;7.192;2022-07-22T11:56:53;6.63;;;4.70;;
35959;SDS011;22043;50.970;7.192;2022-07-22T11:59:19;8.73;;;5.05;;
35959;SDS011;22043;50.970;7.192;2022-07-22T12:01:46;8.00;;;4.95;;
35959;SDS011;22043;50.970;7.192;2022-07-22T12:04:14;9.13;;;5.43;;
35959;SDS011;22043;50.970;7.192;2022-07-22T12:06:43;9.50;;;5.45;;
35959;SDS011;22043;50.970;7.192;2022-07-22T12:09:14;7.70;;;5.07;;
35959;SDS011;22043;50.970;7.192;2022-07-22T12:11:46;9.40;;;5.00;;
35959;SDS011;22043;50.970;7.192;2022-07-22T12:14:23;7.25;;;4.70;;
35959;SDS011;22043;50.970;7.192;2022-07-22T12:16:55;8.55;;;5.10;;
35959;SDS011;22043;50.970;7.192;2022-07-22T12:19:21;8.13;;;5.20;;
35959;SDS011;22043;50.970;7.192;2022-07-22T12:21:54;9.52;;;5.50;;
35959;SDS011;22043;50.970;7.192;2022-07-22T12:24:27;8.65;;;5.03;;
35959;SDS011;22043;50.970;7.192;2022-07-22T12:26:54;8.80;;;5.25;;
35959;SDS011;22043;50.970;7.192;2022-07-22T12:29:23;10.13;;;5.93;;
35959;SDS011;22043;50.970;7.192;2022-07-22T12:31:53;9.70;;;5.53;;
35959;SDS011;22043;50.970;7.192;2022-07-22T12:34:37;8.43;;;4.90;;
35959;SDS011;22043;50.970;7.192;2022-07-22T12:37:19;9.77;;;4.72;;
35959;SDS011;22043;50.970;7.192;2022-07-22T12:42:29;7.95;;;4.72;;
35959;SDS011;22043;50.970;7.192;2022-07-22T12:45:07;11.57;;;5.63;;
35959;SDS011;22043;50.970;7.192;2022-07-22T12:50:29;8.07;;;5.25;;
35959;SDS011;22043;50.970;7.192;2022-07-22T12:53:09;9.55;;;5.05;;
35959;SDS011;22043;50.970;7.192;2022-07-22T12:55:40;9.07;;;5.43;;
35959;SDS011;22043;50.970;7.192;2022-07-22T12:58:08;11.48;;;5.90;;
35959;SDS011;22043;50.970;7.192;2022-07-22T13:00:36;10.05;;;5.28;;
35959;SDS011;22043;50.970;7.192;2022-07-22T13:03:04;7.55;;;5.22;;
35959;SDS011;22043;50.970;7.192;2022-07-22T13:05:30;8.38;;;5.25;;
35959;SDS011;22043;50.970;7.192;2022-07-22T13:07:56;9.23;;;5.43;;
35959;SDS011;22043;50.970;7.192;2022-07-22T13:10:23;9.45;;;6.03;;
35959;SDS011;22043;50.970;7.192;2022-07-22T13:15:16;11.13;;;5.53;;
35959;SDS011;22043;50.970;7.192;2022-07-22T13:17:42;8.65;;;5.50;;
35959;SDS011;22043;50.970;7.192;2022-07-22T13:20:08;8.18;;;4.72;;
35959;SDS011;22043;50.970;7.192;2022-07-22T13:22:35;7.70;;;5.07;;
35959;SDS011;22043;50.970;7.192;2022-07-22T13:25:01;7.25;;;5.38;;
35959;SDS011;22043;50.970;7.192;2022-07-22T13:27:28;10.82;;;5.72;;
35959;SDS011;22043;50.970;7.192;2022-07-22T13:29:53;8.77;;;5.03;;
35959;SDS011;22043;50.970;7.192;2022-07-22T13:32:19;9.52;;;5.55;;
35959;SDS011;22043;50.970;7.192;2022-07-22T13:34:45;8.65;;;4.65;;
35959;SDS011;22043;50.970;7.192;2022-07-22T13:37:10;7.15;;;4.65;;
35959;SDS011;22043;50.970;7.192;2022-07-22T13:39:36;7.85;;;5.18;;
35959;SDS011;22043;50.970;7.192;2022-07-22T13:42:02;8.65;;;4.63;;
35959;SDS011;22043;50.970;7.192;2022-07-22T13:44:28;8.27;;;4.75;;
35959;SDS011;22043;50.970;7.192;2022-07-22T13:46:56;7.85;;;4.75;;
35959;SDS011;22043;50.970;7.192;2022-07-22T13:49:22;8.63;;;5.00;;
35959;SDS011;22043;50.970;7.192;2022-07-22T13:51:48;11.00;;;5.10;;
35959;SDS011;22043;50.970;7.192;2022-07-22T13:54:16;7.38;;;4.78;;
35959;SDS011;22043;50.970;7.192;2022-07-22T13:56:42;7.90;;;4.88;;
35959;SDS011;22043;50.970;7.192;2022-07-22T13:59:09;8.35;;;5.05;;
35959;SDS011;22043;50.970;7.192;2022-07-22T14:01:36;8.98;;;4.88;;
35959;SDS011;22043;50.970;7.192;2022-07-22T14:04:02;8.30;;;4.83;;
35959;SDS011;22043;50.970;7.192;2022-07-22T14:06:29;8.30;;;4.77;;
35959;SDS011;22043;50.970;7.192;2022-07-22T14:08:55;7.97;;;4.40;;
35959;SDS011;22043;50.970;7.192;2022-07-22T14:11:21;9.73;;;5.22;;
35959;SDS011;22043;50.970;7.192;2022-07-22T14:13:46;8.63;;;5.25;;
35959;SDS011;22043;50.970;7.192;2022-07-22T14:16:12;7.88;;;4.38;;
35959;SDS011;22043;50.970;7.192;2022-07-22T14:18:56;7.93;;;5.22;;
35959;SDS011;22043;50.970;7.192;2022-07-22T14:21:22;9.45;;;5.72;;
35959;SDS011;22043;50.970;7.192;2022-07-22T14:23:47;8.88;;;5.30;;
35959;SDS011;22043;50.970;7.192;2022-07-22T14:26:13;9.07;;;5.18;;
35959;SDS011;22043;50.970;7.192;2022-07-22T14:28:39;8.20;;;4.75;;
35959;SDS011;22043;50.970;7.192;2022-07-22T14:31:05;8.88;;;5.80;;
35959;SDS011;22043;50.970;7.192;2022-07-22T14:33:31;10.80;;;5.40;;
35959;SDS011;22043;50.970;7.192;2022-07-22T14:35:56;8.40;;;5.50;;
35959;SDS011;22043;50.970;7.192;2022-07-22T14:38:22;7.75;;;5.15;;
35959;SDS011;22043;50.970;7.192;2022-07-22T14:40:48;9.35;;;5.30;;
35959;SDS011;22043;50.970;7.192;2022-07-22T14:43:14;8.55;;;5.55;;
35959;SDS011;22043;50.970;7.192;2022-07-22T14:45:39;7.43;;;5.03;;
35959;SDS011;22043;50.970;7.192;2022-07-22T14:48:05;9.07;;;5.07;;
35959;SDS011;22043;50.970;7.192;2022-07-22T14:50:31;9.85;;;4.78;;
35959;SDS011;22043;50.970;7.192;2022-07-22T14:52:57;8.90;;;5.68;;
35959;SDS011;22043;50.970;7.192;2022-07-22T14:55:22;8.27;;;5.45;;
35959;SDS011;22043;50.970;7.192;2022-07-22T14:57:48;9.70;;;5.32;;
35959;SDS011;22043;50.970;7.192;2022-07-22T15:00:14;8.60;;;5.20;;
35959;SDS011;22043;50.970;7.192;2022-07-22T15:02:40;6.80;;;4.57;;
35959;SDS011;22043;50.970;7.192;2022-07-22T15:05:06;8.45;;;5.00;;
35959;SDS011;22043;50.970;7.192;2022-07-22T15:07:32;7.88;;;4.97;;
35959;SDS011;22043;50.970;7.192;2022-07-22T15:09:57;7.70;;;5.13;;
35959;SDS011;22043;50.970;7.192;2022-07-22T15:12:23;10.30;;;5.25;;
35959;SDS011;22043;50.970;7.192;2022-07-22T15:14:49;7.68;;;5.03;;
35959;SDS011;22043;50.970;7.192;2022-07-22T15:17:14;8.43;;;5.65;;
35959;SDS011;22043;50.970;7.192;2022-07-22T15:19:40;8.15;;;4.75;;